createdAt,value
2018-12-12T00:01:04.151Z,25.93
2018-12-12T00:03:30.579Z,22.90
2018-12-12T00:05:57.012Z,23.23
2018-12-12T00:08:23.601Z,24.47
2018-12-12T00:10:51.752Z,30.03
2018-12-12T00:13:18.628Z,25.27
2018-12-12T00:15:46.114Z,28.20
2018-12-12T00:18:12.547Z,24.53
2018-12-12T00:20:38.958Z,24.23
2018-12-12T00:23:05.459Z,25.43
2018-12-12T00:25:32.231Z,32.50
2018-12-12T00:27:58.660Z,26.30
2018-12-12T00:30:25.146Z,28.30
2018-12-12T00:32:51.650Z,31.47
2018-12-12T00:35:18.093Z,26.10
2018-12-12T00:37:44.566Z,28.47
2018-12-12T00:40:11.276Z,29.47
2018-12-12T00:42:37.764Z,27.37
2018-12-12T00:45:04.938Z,17.97
2018-12-12T00:47:31.525Z,25.43
2018-12-12T00:49:58.076Z,24.17
2018-12-12T00:52:24.494Z,24.67
2018-12-12T00:54:51.127Z,21.97
2018-12-12T00:57:18.155Z,21.13
2018-12-12T00:59:44.552Z,23.60
2018-12-12T01:02:11.001Z,26.17
2018-12-12T01:04:37.375Z,29.63
2018-12-12T01:07:03.877Z,21.40
2018-12-12T01:09:32.192Z,23.33
2018-12-12T01:12:01.299Z,26.20
2018-12-12T01:14:28.204Z,28.47
2018-12-12T01:16:54.635Z,27.47
2018-12-12T01:19:21.059Z,27.33
2018-12-12T01:21:47.500Z,23.33
2018-12-12T01:24:13.948Z,20.27
2018-12-12T01:26:40.430Z,27.43
2018-12-12T01:29:06.894Z,22.23
2018-12-12T01:31:33.387Z,21.87
2018-12-12T01:33:59.846Z,26.63
2018-12-12T01:36:26.270Z,23.67
2018-12-12T01:38:53.064Z,30.17
2018-12-12T01:41:19.864Z,29.03
2018-12-12T01:43:46.406Z,23.67
2018-12-12T01:46:12.863Z,24.30
2018-12-12T01:48:39.379Z,25.73
2018-12-12T01:51:05.818Z,23.57
2018-12-12T01:53:33.108Z,23.90
2018-12-12T01:55:59.822Z,26.07
2018-12-12T01:58:26.249Z,26.40
2018-12-12T02:00:52.706Z,25.07
2018-12-12T02:03:19.194Z,30.07
2018-12-12T02:05:45.805Z,29.63
2018-12-12T02:08:12.514Z,27.60
2018-12-12T02:10:39.226Z,26.57
2018-12-12T02:13:18.145Z,25.20
2018-12-12T02:15:44.734Z,25.27
2018-12-12T02:18:11.185Z,22.40
2018-12-12T02:20:37.726Z,29.60
2018-12-12T02:23:04.256Z,25.20
2018-12-12T02:25:30.740Z,23.77
2018-12-12T02:27:57.553Z,25.77
2018-12-12T02:30:24.055Z,28.87
2018-12-12T02:32:50.521Z,21.27
2018-12-12T02:35:17.995Z,25.40
2018-12-12T02:37:44.585Z,19.70
2018-12-12T02:40:11.057Z,23.43
2018-12-12T02:42:37.534Z,22.67
2018-12-12T02:45:04.191Z,23.23
2018-12-12T02:47:30.736Z,21.37
2018-12-12T02:49:57.219Z,25.03
2018-12-12T02:52:23.667Z,20.63
2018-12-12T02:54:50.523Z,21.43
2018-12-12T02:57:16.995Z,20.60
2018-12-12T02:59:43.519Z,23.97
2018-12-12T03:02:09.988Z,19.57
2018-12-12T03:04:36.943Z,23.13
2018-12-12T03:07:03.691Z,21.50
2018-12-12T03:09:30.214Z,19.40
2018-12-12T03:11:56.720Z,17.60
2018-12-12T03:14:23.357Z,18.60
2018-12-12T03:16:50.771Z,22.13
2018-12-12T03:19:17.767Z,21.60
2018-12-12T03:21:44.317Z,22.37
2018-12-12T03:24:10.760Z,21.53
2018-12-12T03:26:37.360Z,17.60
2018-12-12T03:29:03.868Z,19.20
2018-12-12T03:31:30.446Z,22.43
2018-12-12T03:33:56.966Z,22.53
2018-12-12T03:36:23.548Z,23.83
2018-12-12T03:38:50.055Z,22.10
2018-12-12T03:41:16.505Z,23.40
2018-12-12T03:43:43.313Z,30.97
2018-12-12T03:46:10.180Z,29.30
2018-12-12T03:48:36.639Z,24.43
2018-12-12T03:51:03.175Z,29.03
2018-12-12T03:53:29.636Z,28.47
2018-12-12T03:55:56.053Z,29.47
2018-12-12T03:58:22.542Z,29.67
2018-12-12T04:00:49.094Z,22.00
2018-12-12T04:03:15.539Z,30.37
2018-12-12T04:05:42.398Z,28.37
2018-12-12T04:08:08.780Z,27.00
2018-12-12T04:10:35.267Z,29.90
2018-12-12T04:13:01.759Z,24.90
2018-12-12T04:15:28.383Z,27.87
2018-12-12T04:17:54.878Z,28.00
2018-12-12T04:20:22.422Z,26.40
2018-12-12T04:22:49.004Z,31.27
2018-12-12T04:25:15.409Z,23.47
2018-12-12T04:27:41.862Z,30.37
2018-12-12T04:30:08.453Z,24.20
2018-12-12T04:32:34.913Z,24.23
2018-12-12T04:35:01.367Z,24.20
2018-12-12T04:37:27.844Z,25.10
2018-12-12T04:39:54.284Z,24.63
2018-12-12T04:42:20.734Z,26.40
2018-12-12T04:44:47.384Z,24.30
2018-12-12T04:47:13.839Z,22.00
2018-12-12T04:49:40.272Z,27.77
2018-12-12T04:52:06.843Z,28.67
2018-12-12T04:54:33.301Z,27.83
2018-12-12T04:56:59.778Z,24.77
2018-12-12T04:59:26.378Z,23.53
2018-12-12T05:01:52.821Z,20.77
2018-12-12T05:04:19.293Z,25.93
2018-12-12T05:06:45.799Z,33.53
2018-12-12T05:09:12.247Z,25.10
2018-12-12T05:11:38.733Z,31.00
2018-12-12T05:14:05.226Z,24.63
2018-12-12T05:16:31.715Z,33.90
2018-12-12T05:18:58.248Z,28.67
2018-12-12T05:21:24.731Z,26.03
2018-12-12T05:23:51.336Z,28.33
2018-12-12T05:26:17.855Z,30.00
2018-12-12T05:28:44.692Z,30.17
2018-12-12T05:31:11.215Z,28.50
2018-12-12T05:33:37.988Z,29.37
2018-12-12T05:36:04.601Z,32.97
2018-12-12T05:38:31.095Z,36.37
2018-12-12T05:40:57.698Z,31.60
2018-12-12T05:43:24.184Z,32.63
2018-12-12T05:45:50.830Z,38.60
2018-12-12T05:48:17.484Z,38.77
2018-12-12T05:50:43.942Z,44.53
2018-12-12T05:53:10.433Z,31.63
2018-12-12T05:55:36.926Z,36.63
2018-12-12T05:58:03.398Z,34.43
2018-12-12T06:00:30.160Z,37.87
2018-12-12T06:02:56.675Z,38.93
2018-12-12T06:05:24.333Z,34.63
2018-12-12T06:07:50.868Z,40.43
2018-12-12T06:10:17.635Z,38.97
2018-12-12T06:12:44.030Z,43.57
2018-12-12T06:15:10.888Z,45.43
2018-12-12T06:17:37.294Z,52.10
2018-12-12T06:20:05.453Z,55.67
2018-12-12T06:22:37.552Z,55.30
2018-12-12T06:25:00.744Z,49.57
2018-12-12T06:27:27.123Z,55.57
2018-12-12T06:29:53.598Z,51.13
2018-12-12T06:32:20.159Z,47.87
2018-12-12T06:34:46.670Z,45.83
2018-12-12T06:37:13.603Z,48.83
2018-12-12T06:39:40.135Z,45.83
2018-12-12T06:42:06.692Z,53.67
2018-12-12T06:44:33.277Z,51.77
2018-12-12T06:47:00.188Z,44.83
2018-12-12T06:49:26.731Z,45.43
2018-12-12T06:51:53.316Z,49.93
2018-12-12T06:54:19.812Z,53.47
2018-12-12T06:56:46.325Z,47.43
2018-12-12T06:59:12.765Z,52.37
2018-12-12T07:01:39.498Z,44.00
2018-12-12T07:04:05.980Z,48.20
2018-12-12T07:06:32.743Z,52.63
2018-12-12T07:08:59.787Z,48.40
2018-12-12T07:11:26.262Z,43.50
2018-12-12T07:16:53.714Z,48.60
2018-12-12T07:19:20.220Z,41.30
2018-12-12T07:21:46.924Z,43.17
2018-12-12T07:24:13.411Z,39.10
2018-12-12T07:26:39.947Z,40.93
2018-12-12T07:29:06.418Z,47.97
2018-12-12T07:31:32.914Z,46.50
2018-12-12T07:34:01.126Z,55.53
2018-12-12T07:36:28.199Z,44.00
2018-12-12T07:38:55.546Z,45.40
2018-12-12T07:41:22.233Z,43.70
2018-12-12T07:43:48.706Z,41.80
2018-12-12T07:46:16.000Z,37.07
2018-12-12T07:48:42.414Z,43.93
2018-12-12T07:51:08.952Z,40.07
2018-12-12T07:53:35.429Z,44.83
2018-12-12T07:56:02.261Z,48.10
2018-12-12T07:58:28.698Z,43.73
2018-12-12T08:00:55.141Z,48.40
2018-12-12T08:03:21.581Z,45.27
2018-12-12T08:05:48.372Z,40.83
2018-12-12T08:08:14.867Z,36.93
2018-12-12T08:10:41.336Z,40.77
2018-12-12T08:13:07.884Z,38.73
2018-12-12T08:15:34.733Z,32.07
2018-12-12T08:18:01.327Z,36.90
2018-12-12T08:20:29.269Z,31.47
2018-12-12T08:22:56.699Z,32.77
2018-12-12T08:25:23.496Z,34.27
2018-12-12T08:27:49.934Z,40.33
2018-12-12T08:30:16.398Z,32.20
2018-12-12T08:32:42.954Z,35.30
2018-12-12T08:35:09.837Z,39.57
2018-12-12T08:37:36.342Z,37.10
2018-12-12T08:40:05.168Z,33.03
2018-12-12T08:42:33.458Z,40.43
2018-12-12T08:44:59.959Z,37.33
2018-12-12T08:47:26.771Z,34.50
2018-12-12T08:49:53.344Z,41.27
2018-12-12T08:52:19.800Z,32.33
2018-12-12T08:54:46.373Z,36.07
2018-12-12T08:57:13.221Z,31.43
2018-12-12T08:59:39.673Z,33.43
2018-12-12T09:02:06.187Z,37.17
2018-12-12T09:04:32.660Z,34.73
2018-12-12T09:06:59.417Z,36.67
2018-12-12T09:09:25.894Z,39.43
2018-12-12T09:11:52.299Z,34.07
2018-12-12T09:14:18.795Z,34.03
2018-12-12T09:16:45.299Z,41.87
2018-12-12T09:19:12.043Z,39.33
2018-12-12T09:21:38.941Z,39.33
2018-12-12T09:24:07.759Z,31.87
2018-12-12T09:26:34.603Z,35.87
2018-12-12T09:29:01.051Z,39.17
2018-12-12T09:31:27.627Z,31.03
2018-12-12T09:33:54.413Z,34.87
2018-12-12T09:36:21.208Z,34.80
2018-12-12T09:38:47.625Z,31.00
2018-12-12T09:41:14.448Z,29.07
2018-12-12T09:43:40.899Z,33.17
2018-12-12T09:46:07.359Z,30.60
2018-12-12T09:48:33.769Z,28.93
2018-12-12T09:51:07.114Z,28.67
2018-12-12T09:53:29.579Z,24.70
2018-12-12T09:55:56.080Z,28.87
2018-12-12T09:58:22.649Z,25.33
2018-12-12T10:00:49.210Z,26.77
2018-12-12T10:03:15.696Z,24.07
2018-12-12T10:05:42.161Z,26.57
2018-12-12T10:08:08.710Z,23.40
2018-12-12T10:10:35.140Z,28.27
2018-12-12T10:13:01.644Z,29.77
2018-12-12T10:15:28.113Z,24.00
2018-12-12T10:17:54.608Z,24.37
2018-12-12T10:20:21.164Z,26.10
2018-12-12T10:22:47.567Z,24.33
2018-12-12T10:25:14.066Z,25.73
2018-12-12T10:27:40.519Z,25.57
2018-12-12T10:30:07.029Z,26.33
2018-12-12T10:32:33.546Z,21.43
2018-12-12T10:35:00.355Z,23.97
2018-12-12T10:37:26.802Z,18.20
2018-12-12T10:39:53.242Z,24.27
2018-12-12T10:42:19.779Z,18.47
2018-12-12T10:44:46.277Z,21.00
2018-12-12T10:47:12.733Z,24.83
2018-12-12T10:49:39.209Z,22.00
2018-12-12T10:52:05.751Z,22.00
2018-12-12T10:54:32.248Z,22.50
2018-12-12T10:56:58.775Z,21.70
2018-12-12T10:59:25.408Z,23.13
2018-12-12T11:01:54.324Z,19.10
2018-12-12T11:04:20.907Z,25.50
2018-12-12T11:06:47.776Z,21.00
2018-12-12T11:09:14.305Z,21.17
2018-12-12T11:11:41.781Z,21.90
2018-12-12T11:14:08.586Z,22.27
2018-12-12T11:16:35.134Z,23.97
2018-12-12T11:19:01.649Z,22.13
2018-12-12T11:21:28.250Z,20.70
2018-12-12T11:23:54.748Z,22.13
2018-12-12T11:26:21.284Z,22.00
2018-12-12T11:28:47.672Z,21.73
2018-12-12T11:31:14.114Z,22.03
2018-12-12T11:33:42.171Z,20.40
2018-12-12T11:36:08.736Z,20.27
2018-12-12T11:38:35.561Z,18.20
2018-12-12T11:41:02.026Z,18.70
2018-12-12T11:43:28.861Z,19.17
2018-12-12T11:45:55.349Z,18.63
2018-12-12T11:48:21.790Z,17.40
2018-12-12T11:50:48.290Z,19.60
2018-12-12T11:53:15.108Z,16.97
2018-12-12T11:55:41.585Z,15.93
2018-12-12T11:58:08.146Z,19.03
2018-12-12T12:00:34.747Z,19.07
2018-12-12T12:03:01.287Z,19.23
2018-12-12T12:05:28.353Z,19.63
2018-12-12T12:07:54.998Z,20.17
2018-12-12T12:10:21.788Z,19.97
2018-12-12T12:12:48.411Z,17.77
2018-12-12T12:15:15.273Z,22.93
2018-12-12T12:17:41.716Z,21.60
2018-12-12T12:20:09.790Z,19.23
2018-12-12T12:22:36.688Z,21.87
2018-12-12T12:25:03.354Z,16.50
2018-12-12T12:27:30.655Z,20.63
2018-12-12T12:29:57.306Z,19.43
2018-12-12T12:32:24.780Z,19.00
2018-12-12T12:34:51.681Z,22.90
2018-12-12T12:37:19.216Z,20.93
2018-12-12T12:39:46.263Z,17.90
2018-12-12T12:42:12.676Z,20.73
2018-12-12T12:44:39.438Z,22.43
2018-12-12T12:47:07.370Z,17.87
2018-12-12T12:49:33.989Z,21.07
2018-12-12T12:52:00.497Z,19.33
2018-12-12T12:54:27.079Z,19.57
2018-12-12T12:56:53.630Z,18.37
2018-12-12T12:59:21.149Z,23.50
2018-12-12T13:01:47.546Z,17.17
2018-12-12T13:04:14.395Z,18.17
2018-12-12T13:06:41.571Z,15.97
2018-12-12T13:09:08.137Z,16.77
2018-12-12T13:11:35.106Z,14.93
2018-12-12T13:14:01.996Z,15.33
2018-12-12T13:16:28.537Z,17.23
2018-12-12T13:18:55.244Z,15.80
2018-12-12T13:21:23.697Z,17.97
2018-12-12T13:23:52.028Z,18.63
2018-12-12T13:26:18.510Z,16.77
2018-12-12T13:28:44.936Z,16.57
2018-12-12T13:31:11.699Z,17.37
2018-12-12T13:33:38.150Z,18.57
2018-12-12T13:36:04.697Z,15.23
2018-12-12T13:38:31.167Z,15.37
2018-12-12T13:40:57.818Z,14.53
2018-12-12T13:43:24.260Z,14.70
2018-12-12T13:45:50.825Z,18.17
2018-12-12T13:48:17.483Z,15.97
2018-12-12T13:50:44.122Z,18.03
2018-12-12T13:53:10.653Z,18.03
2018-12-12T13:55:37.501Z,20.60
2018-12-12T14:00:58.361Z,19.70
2018-12-12T14:03:25.014Z,18.13
2018-12-12T14:05:51.928Z,16.00
2018-12-12T14:08:18.407Z,17.57
2018-12-12T14:10:45.487Z,21.57
2018-12-12T14:13:12.021Z,18.73
2018-12-12T14:15:38.486Z,19.30
2018-12-12T14:18:05.084Z,20.57
2018-12-12T14:20:31.954Z,20.87
2018-12-12T14:22:58.866Z,18.13
2018-12-12T14:25:26.227Z,21.10
2018-12-12T14:27:52.633Z,20.73
2018-12-12T14:30:19.067Z,26.00
2018-12-12T14:32:45.618Z,24.07
2018-12-12T14:35:12.385Z,29.10
2018-12-12T14:37:38.950Z,26.73
2018-12-12T14:40:06.230Z,27.00
2018-12-12T14:42:32.771Z,27.30
2018-12-12T14:44:59.342Z,28.63
2018-12-12T14:47:25.984Z,31.97
2018-12-12T14:49:52.554Z,29.90
2018-12-12T14:52:19.455Z,27.53
2018-12-12T14:54:45.857Z,31.80
2018-12-12T14:57:13.152Z,33.13
2018-12-12T14:59:39.662Z,29.53
2018-12-12T15:02:07.761Z,32.60
2018-12-12T15:04:35.990Z,28.20
2018-12-12T15:07:03.397Z,27.83
2018-12-12T15:09:30.854Z,31.57
2018-12-12T15:11:57.245Z,32.57
2018-12-12T15:14:23.624Z,28.70
2018-12-12T15:16:50.373Z,32.30
2018-12-12T15:19:17.117Z,31.20
2018-12-12T15:21:43.578Z,28.97
2018-12-12T15:24:10.163Z,31.20
2018-12-12T15:26:36.512Z,33.20
2018-12-12T15:29:04.232Z,32.00
2018-12-12T15:31:30.621Z,32.63
2018-12-12T15:33:57.861Z,34.17
2018-12-12T15:36:24.822Z,32.80
2018-12-12T15:38:51.386Z,36.10
2018-12-12T15:41:17.810Z,31.83
2018-12-12T15:43:44.589Z,33.37
2018-12-12T15:46:11.129Z,30.93
2018-12-12T15:48:38.350Z,32.17
2018-12-12T15:51:07.138Z,36.03
2018-12-12T15:53:33.763Z,31.63
2018-12-12T15:56:00.274Z,33.80
2018-12-12T15:58:26.798Z,35.63
2018-12-12T16:00:53.333Z,34.67
2018-12-12T16:03:20.099Z,31.20
2018-12-12T16:05:46.992Z,30.27
2018-12-12T16:08:14.984Z,33.47
2018-12-12T16:10:41.800Z,30.43
2018-12-12T16:13:09.637Z,32.90
2018-12-12T16:15:36.508Z,31.03
2018-12-12T16:18:04.325Z,32.77
2018-12-12T16:20:30.877Z,30.80
2018-12-12T16:22:59.225Z,28.73
2018-12-12T16:25:25.757Z,29.77
2018-12-12T16:27:52.576Z,34.37
2018-12-12T16:30:19.115Z,29.23
2018-12-12T16:32:46.390Z,25.10
2018-12-12T16:35:14.807Z,25.60
2018-12-12T16:37:41.658Z,28.80
2018-12-12T16:40:09.347Z,32.40
2018-12-12T16:42:35.802Z,26.57
2018-12-12T16:45:02.637Z,27.27
2018-12-12T16:47:29.968Z,25.50
2018-12-12T16:49:56.434Z,24.70
2018-12-12T16:52:23.287Z,28.43
2018-12-12T16:54:49.894Z,29.63
2018-12-12T16:57:18.372Z,26.30
2018-12-12T16:59:46.151Z,24.63
2018-12-12T17:02:14.867Z,24.70
2018-12-12T17:04:42.473Z,26.40
2018-12-12T17:07:09.429Z,30.30
2018-12-12T17:09:35.880Z,27.83
2018-12-12T17:12:02.516Z,27.40
2018-12-12T17:14:29.740Z,30.67
2018-12-12T17:16:56.314Z,29.10
2018-12-12T17:19:23.451Z,27.67
2018-12-12T17:21:50.384Z,30.90
2018-12-12T17:24:18.129Z,31.57
2018-12-12T17:26:45.001Z,27.90
2018-12-12T17:29:11.451Z,31.50
2018-12-12T17:31:38.248Z,31.30
2018-12-12T17:34:05.528Z,31.93
2018-12-12T17:36:31.960Z,32.40
2018-12-12T17:39:00.267Z,30.33
2018-12-12T17:41:26.798Z,34.03
2018-12-12T17:43:53.297Z,28.63
2018-12-12T17:46:20.129Z,28.47
2018-12-12T17:48:46.568Z,30.90
2018-12-12T17:51:13.693Z,29.33
2018-12-12T17:53:40.194Z,30.93
2018-12-12T17:56:08.057Z,29.03
2018-12-12T17:58:35.912Z,28.93
2018-12-12T18:01:02.786Z,29.60
2018-12-12T18:03:30.343Z,26.13
2018-12-12T18:05:57.033Z,28.33
2018-12-12T18:08:23.512Z,31.50
2018-12-12T18:10:50.090Z,27.93
2018-12-12T18:13:16.656Z,31.77
2018-12-12T18:15:43.571Z,29.77
2018-12-12T18:18:10.123Z,33.10
2018-12-12T18:20:36.735Z,29.50
2018-12-12T18:23:03.380Z,31.10
2018-12-12T18:25:31.224Z,31.90
2018-12-12T18:27:57.807Z,28.83
2018-12-12T18:30:24.224Z,26.47
2018-12-12T18:32:51.780Z,29.77
2018-12-12T18:35:21.985Z,30.43
2018-12-12T18:37:48.017Z,28.47
2018-12-12T18:40:14.464Z,30.97
2018-12-12T18:42:42.019Z,30.60
2018-12-12T18:45:09.211Z,30.80
2018-12-12T18:47:35.718Z,30.53
2018-12-12T18:50:03.526Z,28.57
2018-12-12T18:52:30.123Z,29.80
2018-12-12T18:54:56.943Z,27.27
2018-12-12T18:57:23.866Z,27.93
2018-12-12T18:59:50.396Z,27.20
2018-12-12T19:02:17.255Z,30.20
2018-12-12T19:04:43.723Z,30.30
2018-12-12T19:07:10.814Z,27.33
2018-12-12T19:09:37.317Z,25.73
2018-12-12T19:12:05.668Z,28.03
2018-12-12T19:14:32.125Z,28.97
2018-12-12T19:17:00.448Z,31.47
2018-12-12T19:19:26.915Z,29.97
2018-12-12T19:21:54.078Z,27.47
2018-12-12T19:24:20.591Z,27.93
2018-12-12T19:26:47.023Z,29.53
2018-12-12T19:29:14.618Z,25.90
2018-12-12T19:31:42.903Z,28.00
2018-12-12T19:34:09.757Z,29.43
2018-12-12T19:36:36.315Z,31.33
2018-12-12T19:39:05.760Z,29.07
2018-12-12T19:41:32.328Z,32.73
2018-12-12T19:43:59.469Z,29.00
2018-12-12T19:46:25.979Z,28.27
2018-12-12T19:48:53.367Z,28.27
2018-12-12T19:51:21.452Z,32.13
2018-12-12T19:53:49.603Z,28.47
2018-12-12T19:56:16.167Z,30.20
2018-12-12T19:58:44.022Z,32.93
2018-12-12T20:01:10.596Z,39.37
2018-12-12T20:03:37.126Z,38.47
2018-12-12T20:06:04.153Z,41.13
2018-12-12T20:08:31.655Z,38.87
2018-12-12T20:10:59.167Z,41.53
2018-12-12T20:13:27.854Z,45.43
2018-12-12T20:15:54.567Z,47.73
2018-12-12T20:18:21.569Z,41.53
2018-12-12T20:20:49.292Z,45.40
2018-12-12T20:23:15.864Z,42.07
2018-12-12T20:25:42.773Z,38.57
2018-12-12T20:28:09.188Z,38.90
2018-12-12T20:30:36.486Z,35.43
2018-12-12T20:33:03.929Z,34.03
2018-12-12T20:35:31.684Z,36.10
2018-12-12T20:38:00.923Z,34.67
2018-12-12T20:40:28.275Z,34.53
2018-12-12T20:42:55.420Z,31.43
2018-12-12T20:45:21.890Z,30.60
2018-12-12T20:47:49.716Z,26.90
2018-12-12T20:50:16.841Z,28.30
2018-12-12T20:52:43.323Z,29.87
2018-12-12T20:55:09.997Z,29.57
2018-12-12T20:57:37.000Z,27.17
2018-12-12T21:00:04.453Z,26.93
2018-12-12T21:02:31.113Z,25.13
2018-12-12T21:04:57.547Z,23.50
2018-12-12T21:07:23.919Z,23.33
2018-12-12T21:09:50.808Z,24.57
2018-12-12T21:12:17.240Z,24.17
2018-12-12T21:14:44.011Z,24.43
2018-12-12T21:17:10.731Z,21.77
2018-12-12T21:19:37.506Z,21.10
2018-12-12T21:22:04.550Z,20.97
2018-12-12T21:24:32.028Z,21.60
2018-12-12T21:26:59.192Z,22.40
2018-12-12T21:29:26.367Z,21.73
2018-12-12T21:31:53.229Z,20.73
2018-12-12T21:34:19.761Z,22.47
2018-12-12T21:36:46.335Z,23.47
2018-12-12T21:39:13.663Z,21.80
2018-12-12T21:41:40.113Z,20.97
2018-12-12T21:44:07.092Z,20.03
2018-12-12T21:46:35.573Z,22.17
2018-12-12T21:49:02.040Z,21.30
2018-12-12T21:51:29.148Z,22.20
2018-12-12T21:53:55.747Z,21.17
2018-12-12T21:56:22.749Z,20.17
2018-12-12T21:58:49.755Z,23.50
2018-12-12T22:01:17.302Z,21.23
2018-12-12T22:03:44.191Z,23.27
2018-12-12T22:06:10.689Z,23.20
2018-12-12T22:08:38.137Z,24.07
2018-12-12T22:11:04.628Z,22.30
2018-12-12T22:13:31.505Z,22.37
2018-12-12T22:15:57.992Z,22.03
2018-12-12T22:18:25.397Z,21.47
2018-12-12T22:20:51.884Z,21.77
2018-12-12T22:23:18.759Z,24.40
2018-12-12T22:25:45.558Z,22.30
2018-12-12T22:28:12.476Z,23.83
2018-12-12T22:30:38.990Z,23.93
2018-12-12T22:33:06.110Z,19.57
2018-12-12T22:35:32.507Z,20.33
2018-12-12T22:37:58.933Z,21.97
2018-12-12T22:40:25.325Z,21.63
2018-12-12T22:42:52.649Z,21.33
2018-12-12T22:45:19.619Z,19.53
2018-12-12T22:47:47.151Z,21.03
2018-12-12T22:50:13.607Z,21.37
2018-12-12T22:52:42.021Z,20.30
2018-12-12T22:55:09.381Z,21.07
2018-12-12T22:57:36.281Z,22.63
2018-12-12T23:00:06.474Z,20.27
2018-12-12T23:02:33.361Z,18.37
2018-12-12T23:04:59.785Z,19.40
2018-12-12T23:07:26.967Z,18.60
2018-12-12T23:09:54.465Z,19.30
2018-12-12T23:12:21.831Z,19.13
2018-12-12T23:14:49.551Z,20.97
2018-12-12T23:17:16.046Z,20.33
2018-12-12T23:19:43.066Z,21.73
2018-12-12T23:22:09.492Z,21.63
2018-12-12T23:24:37.107Z,21.33
2018-12-12T23:27:03.538Z,21.53
2018-12-12T23:29:30.339Z,21.03
2018-12-12T23:31:57.491Z,20.03
2018-12-12T23:34:24.704Z,20.77
2018-12-12T23:36:51.140Z,21.30
2018-12-12T23:39:17.531Z,20.10
2018-12-12T23:41:44.264Z,22.20
2018-12-12T23:44:10.801Z,20.80
2018-12-12T23:46:38.001Z,19.70
2018-12-12T23:49:04.934Z,20.57
2018-12-12T23:51:32.026Z,22.13
2018-12-12T23:53:59.141Z,20.97
2018-12-12T23:56:26.929Z,19.93
2018-12-12T23:58:53.378Z,22.87
